sensor_id;sensor_type;location;lat;lon;timestamp;pressure;altitude;pressure_sealevel;temperature;humidity
12475;BME280;6302;42.624;23.334;2022-09-03T00:01:20;93302.84;;;16.25;100.00
12475;BME280;6302;42.624;23.334;2022-09-03T00:03:51;93301.97;;;16.28;100.00
12475;BME280;6302;42.624;23.334;2022-09-03T00:06:24;93309.03;;;16.22;100.00
12475;BME280;6302;42.624;23.334;2022-09-03T00:08:57;93305.59;;;16.35;100.00
12475;BME280;6302;42.624;23.334;2022-09-03T00:11:30;93313.97;;;16.37;100.00
12475;BME280;6302;42.624;23.334;2022-09-03T00:14:03;93307.75;;;16.40;100.00
12475;BME280;6302;42.624;23.334;2022-09-03T00:16:42;93302.75;;;16.29;100.00
12475;BME280;6302;42.624;23.334;2022-09-03T00:19:11;93307.13;;;16.36;100.00
12475;BME280;6302;42.624;23.334;2022-09-03T00:21:46;93310.97;;;16.35;100.00
12475;BME280;6302;42.624;23.334;2022-09-03T00:24:17;93306.66;;;16.24;100.00
12475;BME280;6302;42.624;23.334;2022-09-03T00:26:49;93304.44;;;16.23;100.00
12475;BME280;6302;42.624;23.334;2022-09-03T00:29:20;93297.03;;;16.27;100.00
12475;BME280;6302;42.624;23.334;2022-09-03T00:31:52;93308.19;;;16.25;100.00
12475;BME280;6302;42.624;23.334;2022-09-03T00:34:24;93298.00;;;16.20;100.00
12475;BME280;6302;42.624;23.334;2022-09-03T00:36:54;93304.34;;;16.26;100.00
12475;BME280;6302;42.624;23.334;2022-09-03T00:39:22;93299.84;;;16.23;100.00
12475;BME280;6302;42.624;23.334;2022-09-03T00:42:01;93306.66;;;16.24;100.00
12475;BME280;6302;42.624;23.334;2022-09-03T00:44:43;93300.59;;;16.24;100.00
12475;BME280;6302;42.624;23.334;2022-09-03T00:47:19;93301.75;;;16.23;100.00
12475;BME280;6302;42.624;23.334;2022-09-03T00:49:56;93305.94;;;16.24;100.00
12475;BME280;6302;42.624;23.334;2022-09-03T00:52:36;93309.47;;;16.21;100.00
12475;BME280;6302;42.624;23.334;2022-09-03T00:55:12;93302.84;;;16.25;100.00
12475;BME280;6302;42.624;23.334;2022-09-03T00:57:49;93319.72;;;16.22;100.00
12475;BME280;6302;42.624;23.334;2022-09-03T01:00:21;93309.16;;;16.32;100.00
12475;BME280;6302;42.624;23.334;2022-09-03T01:03:03;93305.81;;;16.27;100.00
12475;BME280;6302;42.624;23.334;2022-09-03T01:05:41;93308.81;;;16.29;100.00
12475;BME280;6302;42.624;23.334;2022-09-03T01:08:26;93306.66;;;16.24;100.00
12475;BME280;6302;42.624;23.334;2022-09-03T01:11:07;93299.31;;;16.28;100.00
12475;BME280;6302;42.624;23.334;2022-09-03T01:13:45;93300.78;;;16.29;100.00
12475;BME280;6302;42.624;23.334;2022-09-03T01:16:23;93301.31;;;16.24;100.00
12475;BME280;6302;42.624;23.334;2022-09-03T01:19:00;93301.66;;;16.26;100.00
12475;BME280;6302;42.624;23.334;2022-09-03T01:21:46;93298.34;;;16.22;100.00
12475;BME280;6302;42.624;23.334;2022-09-03T01:27:21;93301.09;;;16.06;100.00
12475;BME280;6302;42.624;23.334;2022-09-03T01:29:58;93308.16;;;16.13;100.00
12475;BME280;6302;42.624;23.334;2022-09-03T01:32:38;93311.56;;;16.01;100.00
12475;BME280;6302;42.624;23.334;2022-09-03T01:35:11;93318.63;;;15.95;100.00
12475;BME280;6302;42.624;23.334;2022-09-03T01:37:51;93321.09;;;16.02;100.00
12475;BME280;6302;42.624;23.334;2022-09-03T01:40:29;93320.53;;;15.94;100.00
12475;BME280;6302;42.624;23.334;2022-09-03T01:43:11;93324.91;;;15.88;100.00
12475;BME280;6302;42.624;23.334;2022-09-03T01:45:52;93320.59;;;15.78;100.00
12475;BME280;6302;42.624;23.334;2022-09-03T01:48:31;93315.91;;;15.82;100.00
12475;BME280;6302;42.624;23.334;2022-09-03T01:51:10;93303.41;;;15.79;100.00
12475;BME280;6302;42.624;23.334;2022-09-03T01:53:55;93310.06;;;15.87;100.00
12475;BME280;6302;42.624;23.334;2022-09-03T01:56:36;93316.13;;;15.88;100.00
12475;BME280;6302;42.624;23.334;2022-09-03T01:59:14;93315.28;;;15.91;100.00
12475;BME280;6302;42.624;23.334;2022-09-03T02:01:52;93313.88;;;15.86;100.00
12475;BME280;6302;42.624;23.334;2022-09-03T02:04:25;93318.41;;;15.89;100.00
12475;BME280;6302;42.624;23.334;2022-09-03T02:06:55;93313.69;;;15.93;100.00
12475;BME280;6302;42.624;23.334;2022-09-03T02:09:25;93312.19;;;15.92;100.00
12475;BME280;6302;42.624;23.334;2022-09-03T02:11:54;93305.44;;;15.88;100.00
12475;BME280;6302;42.624;23.334;2022-09-03T02:14:24;93311.00;;;15.93;100.00
12475;BME280;6302;42.624;23.334;2022-09-03T02:16:55;93327.47;;;15.92;100.00
12475;BME280;6302;42.624;23.334;2022-09-03T02:19:23;93328.41;;;15.85;100.00
12475;BME280;6302;42.624;23.334;2022-09-03T02:21:53;93330.13;;;15.79;100.00
12475;BME280;6302;42.624;23.334;2022-09-03T02:24:21;93329.88;;;15.74;100.00
12475;BME280;6302;42.624;23.334;2022-09-03T02:26:49;93324.44;;;15.77;100.00
12475;BME280;6302;42.624;23.334;2022-09-03T02:29:16;93327.78;;;15.81;100.00
12475;BME280;6302;42.624;23.334;2022-09-03T02:31:43;93329.28;;;15.82;100.00
12475;BME280;6302;42.624;23.334;2022-09-03T02:34:12;93333.13;;;15.81;100.00
12475;BME280;6302;42.624;23.334;2022-09-03T02:36:41;93329.28;;;15.82;100.00
12475;BME280;6302;42.624;23.334;2022-09-03T02:39:10;93324.13;;;15.88;100.00
12475;BME280;6302;42.624;23.334;2022-09-03T02:41:37;93332.41;;;15.93;100.00
12475;BME280;6302;42.624;23.334;2022-09-03T02:44:08;93340.41;;;15.93;100.00
12475;BME280;6302;42.624;23.334;2022-09-03T02:46:42;93337.50;;;15.88;100.00
12475;BME280;6302;42.624;23.334;2022-09-03T02:49:09;93338.38;;;15.85;100.00
12475;BME280;6302;42.624;23.334;2022-09-03T02:51:39;93339.78;;;15.89;100.00
12475;BME280;6302;42.624;23.334;2022-09-03T02:54:07;93342.84;;;15.88;100.00
12475;BME280;6302;42.624;23.334;2022-09-03T02:56:35;93337.63;;;15.84;100.00
12475;BME280;6302;42.624;23.334;2022-09-03T02:59:02;93339.00;;;15.89;100.00
12475;BME280;6302;42.624;23.334;2022-09-03T03:01:29;93339.97;;;15.82;100.00
12475;BME280;6302;42.624;23.334;2022-09-03T03:03:56;93305.78;;;15.61;100.00
12475;BME280;6302;42.624;23.334;2022-09-03T03:06:23;93341.44;;;15.83;100.00
12475;BME280;6302;42.624;23.334;2022-09-03T03:08:51;93339.09;;;15.85;100.00
12475;BME280;6302;42.624;23.334;2022-09-03T03:11:22;93342.75;;;15.91;100.00
12475;BME280;6302;42.624;23.334;2022-09-03T03:13:50;93341.25;;;15.90;100.00
12475;BME280;6302;42.624;23.334;2022-09-03T03:16:18;93340.94;;;15.88;100.00
12475;BME280;6302;42.624;23.334;2022-09-03T03:18:45;93337.50;;;15.88;100.00
12475;BME280;6302;42.624;23.334;2022-09-03T03:21:14;93340.94;;;15.88;100.00
12475;BME280;6302;42.624;23.334;2022-09-03T03:23:41;93336.25;;;15.92;100.00
12475;BME280;6302;42.624;23.334;2022-09-03T03:26:11;93337.34;;;15.95;100.00
12475;BME280;6302;42.624;23.334;2022-09-03T03:28:39;93340.97;;;16.01;100.00
12475;BME280;6302;42.624;23.334;2022-09-03T03:31:07;93342.25;;;15.96;100.00
12475;BME280;6302;42.624;23.334;2022-09-03T03:33:35;93347.81;;;16.02;100.00
12475;BME280;6302;42.624;23.334;2022-09-03T03:36:05;93344.72;;;16.03;100.00
12475;BME280;6302;42.624;23.334;2022-09-03T03:38:32;93344.81;;;16.00;100.00
12475;BME280;6302;42.624;23.334;2022-09-03T03:41:05;93349.19;;;15.94;100.00
12475;BME280;6302;42.624;23.334;2022-09-03T03:43:33;93333.38;;;15.99;100.00
12475;BME280;6302;42.624;23.334;2022-09-03T03:46:00;93340.63;;;15.86;100.00
12475;BME280;6302;42.624;23.334;2022-09-03T03:48:26;93338.69;;;15.87;100.00
12475;BME280;6302;42.624;23.334;2022-09-03T03:50:53;93346.22;;;15.76;100.00
12475;BME280;6302;42.624;23.334;2022-09-03T03:53:21;93340.13;;;15.75;100.00
12475;BME280;6302;42.624;23.334;2022-09-03T03:55:53;93336.94;;;15.80;100.00
12475;BME280;6302;42.624;23.334;2022-09-03T03:58:21;93341.38;;;15.87;100.00
12475;BME280;6302;42.624;23.334;2022-09-03T04:00:49;93347.34;;;15.91;100.00
12475;BME280;6302;42.624;23.334;2022-09-03T04:03:16;93353.38;;;15.95;100.00
12475;BME280;6302;42.624;23.334;2022-09-03T04:05:53;93345.75;;;15.93;100.00
12475;BME280;6302;42.624;23.334;2022-09-03T04:08:20;93356.88;;;15.92;100.00
12475;BME280;6302;42.624;23.334;2022-09-03T04:10:47;93352.09;;;15.99;100.00
12475;BME280;6302;42.624;23.334;2022-09-03T04:13:14;93350.78;;;15.91;100.00
12475;BME280;6302;42.624;23.334;2022-09-03T04:15:41;93344.28;;;15.92;100.00
12475;BME280;6302;42.624;23.334;2022-09-03T04:18:10;93345.66;;;15.97;100.00
12475;BME280;6302;42.624;23.334;2022-09-03T04:20:36;93346.31;;;16.01;100.00
12475;BME280;6302;42.624;23.334;2022-09-03T04:23:04;93346.56;;;16.06;100.00
12475;BME280;6302;42.624;23.334;2022-09-03T04:25:30;93344.94;;;16.09;100.00
12475;BME280;6302;42.624;23.334;2022-09-03T04:27:58;93352.53;;;16.10;100.00
12475;BME280;6302;42.624;23.334;2022-09-03T04:30:24;93350.63;;;16.11;100.00
12475;BME280;6302;42.624;23.334;2022-09-03T04:32:52;93350.53;;;16.14;100.00
12475;BME280;6302;42.624;23.334;2022-09-03T04:35:20;93357.69;;;16.17;100.00
12475;BME280;6302;42.624;23.334;2022-09-03T04:37:47;93358.97;;;16.13;100.00
12475;BME280;6302;42.624;23.334;2022-09-03T04:40:14;93367.41;;;16.11;100.00
12475;BME280;6302;42.624;23.334;2022-09-03T04:42:41;93374.59;;;16.14;100.00
12475;BME280;6302;42.624;23.334;2022-09-03T04:45:09;93374.91;;;16.16;100.00
12475;BME280;6302;42.624;23.334;2022-09-03T04:47:36;93375.47;;;16.24;100.00
12475;BME280;6302;42.624;23.334;2022-09-03T04:50:03;93380.47;;;16.09;100.00
12475;BME280;6302;42.624;23.334;2022-09-03T04:52:32;93386.66;;;16.06;100.00
12475;BME280;6302;42.624;23.334;2022-09-03T04:54:59;93387.47;;;16.03;100.00
12475;BME280;6302;42.624;23.334;2022-09-03T04:57:27;93389.63;;;16.08;100.00
12475;BME280;6302;42.624;23.334;2022-09-03T04:59:58;93394.34;;;16.04;100.00
12475;BME280;6302;42.624;23.334;2022-09-03T05:02:25;93395.19;;;16.01;100.00
12475;BME280;6302;42.624;23.334;2022-09-03T05:04:52;93397.41;;;16.03;100.00
12475;BME280;6302;42.624;23.334;2022-09-03T05:07:19;93403.00;;;16.08;100.00
12475;BME280;6302;42.624;23.334;2022-09-03T05:09:47;93404.94;;;16.08;100.00
12475;BME280;6302;42.624;23.334;2022-09-03T05:12:14;93404.53;;;16.09;100.00
12475;BME280;6302;42.624;23.334;2022-09-03T05:14:42;93407.34;;;16.02;100.00
12475;BME280;6302;42.624;23.334;2022-09-03T05:17:09;93400.41;;;16.05;100.00
12475;BME280;6302;42.624;23.334;2022-09-03T05:19:35;93403.53;;;16.03;100.00
12475;BME280;6302;42.624;23.334;2022-09-03T05:22:02;93400.84;;;16.03;100.00
12475;BME280;6302;42.624;23.334;2022-09-03T05:24:29;93400.41;;;16.05;100.00
12475;BME280;6302;42.624;23.334;2022-09-03T05:26:57;93402.91;;;16.12;100.00
12475;BME280;6302;42.624;23.334;2022-09-03T05:29:24;93408.59;;;16.14;100.00
12475;BME280;6302;42.624;23.334;2022-09-03T05:31:51;93396.31;;;16.16;100.00
12475;BME280;6302;42.624;23.334;2022-09-03T05:34:18;93406.00;;;16.10;100.00
12475;BME280;6302;42.624;23.334;2022-09-03T05:36:45;93404.38;;;16.00;100.00
12475;BME280;6302;42.624;23.334;2022-09-03T05:39:13;93407.56;;;15.95;100.00
12475;BME280;6302;42.624;23.334;2022-09-03T05:41:40;93415.06;;;16.00;100.00
12475;BME280;6302;42.624;23.334;2022-09-03T05:44:08;93420.31;;;16.04;100.00
12475;BME280;6302;42.624;23.334;2022-09-03T05:46:35;93413.94;;;16.14;100.00
12475;BME280;6302;42.624;23.334;2022-09-03T05:49:03;93414.91;;;16.20;100.00
12475;BME280;6302;42.624;23.334;2022-09-03T05:51:31;93415.56;;;16.24;100.00
12475;BME280;6302;42.624;23.334;2022-09-03T05:53:59;93415.13;;;16.25;100.00
12475;BME280;6302;42.624;23.334;2022-09-03T05:56:28;93417.41;;;16.40;100.00
12475;BME280;6302;42.624;23.334;2022-09-03T05:58:57;93420.75;;;16.44;100.00
12475;BME280;6302;42.624;23.334;2022-09-03T06:01:28;93426.09;;;16.44;100.00
12475;BME280;6302;42.624;23.334;2022-09-03T06:03:57;93426.00;;;16.47;100.00
12475;BME280;6302;42.624;23.334;2022-09-03T06:06:25;93422.44;;;16.38;100.00
12475;BME280;6302;42.624;23.334;2022-09-03T06:08:52;93427.59;;;16.45;100.00
12475;BME280;6302;42.624;23.334;2022-09-03T06:11:19;93434.44;;;16.46;100.00
12475;BME280;6302;42.624;23.334;2022-09-03T06:13:47;93433.47;;;16.40;100.00
12475;BME280;6302;42.624;23.334;2022-09-03T06:16:14;93439.31;;;16.35;100.00
12475;BME280;6302;42.624;23.334;2022-09-03T06:18:42;93434.53;;;16.42;100.00
12475;BME280;6302;42.624;23.334;2022-09-03T06:21:09;93437.19;;;16.58;100.00
12475;BME280;6302;42.624;23.334;2022-09-03T06:23:36;93430.78;;;16.68;100.00
12475;BME280;6302;42.624;23.334;2022-09-03T06:26:05;93434.72;;;16.64;100.00
12475;BME280;6302;42.624;23.334;2022-09-03T06:28:32;93442.63;;;16.55;100.00
12475;BME280;6302;42.624;23.334;2022-09-03T06:31:00;93441.13;;;16.54;100.00
12475;BME280;6302;42.624;23.334;2022-09-03T06:33:28;93445.63;;;16.57;100.00
12475;BME280;6302;42.624;23.334;2022-09-03T06:35:58;93459.09;;;16.53;100.00
12475;BME280;6302;42.624;23.334;2022-09-03T06:38:26;93445.91;;;16.46;100.00
12475;BME280;6302;42.624;23.334;2022-09-03T06:40:55;93449.00;;;16.45;100.00
12475;BME280;6302;42.624;23.334;2022-09-03T06:43:23;93449.66;;;16.49;100.00
12475;BME280;6302;42.624;23.334;2022-09-03T06:45:55;93447.31;;;16.51;100.00
12475;BME280;6302;42.624;23.334;2022-09-03T06:48:23;93444.88;;;16.56;100.00
12475;BME280;6302;42.624;23.334;2022-09-03T06:50:56;93453.56;;;16.73;100.00
12475;BME280;6302;42.624;23.334;2022-09-03T06:53:25;93449.53;;;16.81;100.00
12475;BME280;6302;42.624;23.334;2022-09-03T06:55:54;93449.94;;;16.92;100.00
12475;BME280;6302;42.624;23.334;2022-09-03T06:58:21;93451.47;;;16.93;100.00
12475;BME280;6302;42.624;23.334;2022-09-03T07:00:49;93456.59;;;17.00;100.00
12475;BME280;6302;42.624;23.334;2022-09-03T07:03:17;93454.78;;;17.10;100.00
12475;BME280;6302;42.624;23.334;2022-09-03T07:05:44;93457.25;;;17.04;100.00
12475;BME280;6302;42.624;23.334;2022-09-03T07:08:11;93460.91;;;17.10;100.00
12475;BME280;6302;42.624;23.334;2022-09-03T07:10:39;93457.78;;;17.12;100.00
12475;BME280;6302;42.624;23.334;2022-09-03T07:13:08;93459.06;;;17.07;100.00
12475;BME280;6302;42.624;23.334;2022-09-03T07:15:34;93460.91;;;17.10;100.00
12475;BME280;6302;42.624;23.334;2022-09-03T07:18:01;93464.19;;;17.14;100.00
12475;BME280;6302;42.624;23.334;2022-09-03T07:20:28;93461.84;;;17.16;100.00
12475;BME280;6302;42.624;23.334;2022-09-03T07:22:55;93460.34;;;17.28;100.00
12475;BME280;6302;42.624;23.334;2022-09-03T07:25:22;93467.31;;;17.25;100.00
12475;BME280;6302;42.624;23.334;2022-09-03T07:27:52;93471.59;;;17.23;100.00
12475;BME280;6302;42.624;23.334;2022-09-03T07:30:19;93478.03;;;17.25;100.00
12475;BME280;6302;42.624;23.334;2022-09-03T07:32:46;93475.75;;;17.36;100.00
12475;BME280;6302;42.624;23.334;2022-09-03T07:35:15;93480.03;;;17.46;100.00
12475;BME280;6302;42.624;23.334;2022-09-03T07:37:42;93484.47;;;17.40;100.00
12475;BME280;6302;42.624;23.334;2022-09-03T07:40:10;93490.13;;;17.42;100.00
12475;BME280;6302;42.624;23.334;2022-09-03T07:42:37;93487.47;;;17.55;100.00
12475;BME280;6302;42.624;23.334;2022-09-03T07:45:07;93490.03;;;17.59;100.00
12475;BME280;6302;42.624;23.334;2022-09-03T07:47:35;93491.19;;;17.70;100.00
12475;BME280;6302;42.624;23.334;2022-09-03T07:50:02;93494.72;;;17.80;100.00
12475;BME280;6302;42.624;23.334;2022-09-03T07:52:29;93485.00;;;17.95;100.00
12475;BME280;6302;42.624;23.334;2022-09-03T07:54:57;93495.34;;;17.84;100.00
12475;BME280;6302;42.624;23.334;2022-09-03T07:57:24;93491.91;;;17.83;100.00
12475;BME280;6302;42.624;23.334;2022-09-03T07:59:51;93504.13;;;17.97;100.00
12475;BME280;6302;42.624;23.334;2022-09-03T08:02:19;93501.16;;;18.16;100.00
12475;BME280;6302;42.624;23.334;2022-09-03T08:04:46;93495.50;;;18.14;100.00
12475;BME280;6302;42.624;23.334;2022-09-03T08:07:13;93498.34;;;18.20;100.00
12475;BME280;6302;42.624;23.334;2022-09-03T08:09:40;93500.53;;;18.12;100.00
12475;BME280;6302;42.624;23.334;2022-09-03T08:12:07;93497.72;;;18.16;100.00
12475;BME280;6302;42.624;23.334;2022-09-03T08:14:34;93496.44;;;18.42;100.00
12475;BME280;6302;42.624;23.334;2022-09-03T08:17:01;93503.00;;;18.41;100.00
12475;BME280;6302;42.624;23.334;2022-09-03T08:19:29;93499.44;;;18.44;100.00
12475;BME280;6302;42.624;23.334;2022-09-03T08:21:56;93500.88;;;18.49;100.00
12475;BME280;6302;42.624;23.334;2022-09-03T08:24:23;93504.78;;;18.23;100.00
12475;BME280;6302;42.624;23.334;2022-09-03T08:26:51;93490.81;;;18.28;100.00
12475;BME280;6302;42.624;23.334;2022-09-03T08:29:18;93494.31;;;18.37;100.00
12475;BME280;6302;42.624;23.334;2022-09-03T08:31:45;93500.41;;;18.50;100.00
12475;BME280;6302;42.624;23.334;2022-09-03T08:34:12;93498.59;;;18.47;100.00
12475;BME280;6302;42.624;23.334;2022-09-03T08:36:42;93501.69;;;18.58;100.00
12475;BME280;6302;42.624;23.334;2022-09-03T08:39:12;93504.78;;;18.57;100.00
12475;BME280;6302;42.624;23.334;2022-09-03T08:42:05;93493.38;;;18.65;100.00
12475;BME280;6302;42.624;23.334;2022-09-03T08:44:40;93495.59;;;18.67;100.00
12475;BME280;6302;42.624;23.334;2022-09-03T08:47:14;93498.28;;;18.67;100.00
12475;BME280;6302;42.624;23.334;2022-09-03T08:49:47;93499.44;;;18.78;100.00
12475;BME280;6302;42.624;23.334;2022-09-03T08:52:27;93495.91;;;18.91;100.00
12475;BME280;6302;42.624;23.334;2022-09-03T08:55:02;93500.75;;;19.05;100.00
12475;BME280;6302;42.624;23.334;2022-09-03T08:57:31;93504.06;;;19.09;100.00
12475;BME280;6302;42.624;23.334;2022-09-03T09:00:04;93508.56;;;19.12;100.00
12475;BME280;6302;42.624;23.334;2022-09-03T09:02:39;93511.59;;;19.23;100.00
12475;BME280;6302;42.624;23.334;2022-09-03T09:05:16;93507.63;;;19.06;100.00
12475;BME280;6302;42.624;23.334;2022-09-03T09:07:50;93515.81;;;19.02;100.00
12475;BME280;6302;42.624;23.334;2022-09-03T09:10:25;93512.81;;;19.00;100.00
12475;BME280;6302;42.624;23.334;2022-09-03T09:13:05;93502.69;;;19.04;100.00
12475;BME280;6302;42.624;23.334;2022-09-03T09:15:42;93509.69;;;19.02;100.00
12475;BME280;6302;42.624;23.334;2022-09-03T09:18:20;93510.44;;;19.02;100.00
12475;BME280;6302;42.624;23.334;2022-09-03T09:20:52;93512.00;;;19.12;100.00
12475;BME280;6302;42.624;23.334;2022-09-03T09:23:25;93514.78;;;19.30;100.00
12475;BME280;6302;42.624;23.334;2022-09-03T09:25:55;93518.16;;;19.22;100.00
12475;BME280;6302;42.624;23.334;2022-09-03T09:28:24;93522.09;;;19.30;100.00
12475;BME280;6302;42.624;23.334;2022-09-03T09:30:54;93522.66;;;19.25;100.00
12475;BME280;6302;42.624;23.334;2022-09-03T09:33:22;93523.25;;;19.29;100.00
12475;BME280;6302;42.624;23.334;2022-09-03T09:35:49;93525.13;;;19.41;100.00
12475;BME280;6302;42.624;23.334;2022-09-03T09:38:29;93523.69;;;19.49;100.00
12475;BME280;6302;42.624;23.334;2022-09-03T09:41:07;93513.09;;;19.55;100.00
12475;BME280;6302;42.624;23.334;2022-09-03T09:43:35;93525.13;;;19.41;100.00
12475;BME280;6302;42.624;23.334;2022-09-03T09:46:07;93520.97;;;19.40;100.00
12475;BME280;6302;42.624;23.334;2022-09-03T09:48:38;93522.16;;;19.48;100.00
12475;BME280;6302;42.624;23.334;2022-09-03T09:51:09;93527.91;;;19.68;100.00
12475;BME280;6302;42.624;23.334;2022-09-03T09:53:38;93522.53;;;19.68;100.00
12475;BME280;6302;42.624;23.334;2022-09-03T09:56:06;93531.66;;;19.71;100.00
12475;BME280;6302;42.624;23.334;2022-09-03T09:58:34;93532.31;;;19.93;100.00
12475;BME280;6302;42.624;23.334;2022-09-03T10:01:04;93533.06;;;19.93;100.00
12475;BME280;6302;42.624;23.334;2022-09-03T10:03:46;93534.44;;;19.98;100.00
12475;BME280;6302;42.624;23.334;2022-09-03T10:06:14;93528.28;;;19.97;100.00
12475;BME280;6302;42.624;23.334;2022-09-03T10:09:07;93524.47;;;20.17;100.00
12475;BME280;6302;42.624;23.334;2022-09-03T10:11:34;93525.94;;;20.18;100.00
12475;BME280;6302;42.624;23.334;2022-09-03T10:14:08;93520.75;;;20.32;100.00
12475;BME280;6302;42.624;23.334;2022-09-03T10:16:39;93517.03;;;20.48;100.00
12475;BME280;6302;42.624;23.334;2022-09-03T10:19:15;93514.31;;;20.57;100.00
12475;BME280;6302;42.624;23.334;2022-09-03T10:21:49;93514.63;;;20.86;100.00
12475;BME280;6302;42.624;23.334;2022-09-03T10:24:30;93512.81;;;21.10;100.00
12475;BME280;6302;42.624;23.334;2022-09-03T10:27:06;93513.81;;;21.22;100.00
12475;BME280;6302;42.624;23.334;2022-09-03T10:29:34;93507.38;;;21.19;100.00
12475;BME280;6302;42.624;23.334;2022-09-03T10:32:14;93484.34;;;20.91;100.00
12475;BME280;6302;42.624;23.334;2022-09-03T10:34:53;93513.69;;;21.07;100.00
12475;BME280;6302;42.624;23.334;2022-09-03T10:37:31;93515.00;;;21.21;100.00
12475;BME280;6302;42.624;23.334;2022-09-03T10:40:19;93512.28;;;21.30;100.00
12475;BME280;6302;42.624;23.334;2022-09-03T10:43:03;93514.09;;;21.24;100.00
12475;BME280;6302;42.624;23.334;2022-09-03T10:45:37;93514.50;;;21.40;100.00
12475;BME280;6302;42.624;23.334;2022-09-03T10:48:29;93515.31;;;21.56;100.00
12475;BME280;6302;42.624;23.334;2022-09-03T10:51:04;93514.75;;;21.52;100.00
12475;BME280;6302;42.624;23.334;2022-09-03T10:53:48;93510.34;;;21.30;100.00
12475;BME280;6302;42.624;23.334;2022-09-03T10:56:21;93509.50;;;21.48;100.00
12475;BME280;6302;42.624;23.334;2022-09-03T10:59:00;93518.22;;;21.52;100.00
12475;BME280;6302;42.624;23.334;2022-09-03T11:01:36;93512.28;;;21.63;100.00
12475;BME280;6302;42.624;23.334;2022-09-03T11:04:19;93514.34;;;21.77;100.00
12475;BME280;6302;42.624;23.334;2022-09-03T11:06:51;93503.81;;;21.88;100.00
12475;BME280;6302;42.624;23.334;2022-09-03T11:09:22;93501.00;;;21.82;100.00
12475;BME280;6302;42.624;23.334;2022-09-03T11:11:56;93501.44;;;21.81;100.00
12475;BME280;6302;42.624;23.334;2022-09-03T11:14:32;93509.22;;;21.55;100.00
12475;BME280;6302;42.624;23.334;2022-09-03T11:17:04;93515.31;;;21.56;100.00
12475;BME280;6302;42.624;23.334;2022-09-03T11:19:34;93515.66;;;21.49;100.00
12475;BME280;6302;42.624;23.334;2022-09-03T11:22:03;93512.69;;;21.47;100.00
12475;BME280;6302;42.624;23.334;2022-09-03T11:24:32;93507.03;;;21.35;100.00
12475;BME280;6302;42.624;23.334;2022-09-03T11:27:10;93510.19;;;21.34;100.00
12475;BME280;6302;42.624;23.334;2022-09-03T11:29:50;93506.00;;;21.33;100.00
12475;BME280;6302;42.624;23.334;2022-09-03T11:32:23;93509.09;;;21.40;100.00
12475;BME280;6302;42.624;23.334;2022-09-03T11:34:53;93494.50;;;21.56;100.00
12475;BME280;6302;42.624;23.334;2022-09-03T11:37:22;93504.69;;;21.61;100.00
12475;BME280;6302;42.624;23.334;2022-09-03T11:39:54;93499.34;;;21.76;100.00
12475;BME280;6302;42.624;23.334;2022-09-03T11:42:31;93506.69;;;21.75;100.00
12475;BME280;6302;42.624;23.334;2022-09-03T11:45:11;93504.47;;;21.74;100.00
12475;BME280;6302;42.624;23.334;2022-09-03T11:47:40;93507.44;;;21.76;100.00
12475;BME280;6302;42.624;23.334;2022-09-03T11:50:22;93508.78;;;21.80;100.00
12475;BME280;6302;42.624;23.334;2022-09-03T11:52:51;93505.31;;;21.89;100.00
12475;BME280;6302;42.624;23.334;2022-09-03T11:55:26;93507.63;;;22.05;100.00
12475;BME280;6302;42.624;23.334;2022-09-03T11:57:57;93516.69;;;21.93;100.00
12475;BME280;6302;42.624;23.334;2022-09-03T12:00:24;93509.91;;;21.97;100.00
12475;BME280;6302;42.624;23.334;2022-09-03T12:02:54;93507.53;;;21.90;100.00
12475;BME280;6302;42.624;23.334;2022-09-03T12:05:29;93501.31;;;22.08;100.00
12475;BME280;6302;42.624;23.334;2022-09-03T12:08:18;93494.34;;;22.16;100.00
12475;BME280;6302;42.624;23.334;2022-09-03T12:10:55;93510.28;;;22.14;100.00
12475;BME280;6302;42.624;23.334;2022-09-03T12:13:45;93499.97;;;22.03;100.00
12475;BME280;6302;42.624;23.334;2022-09-03T12:16:33;93491.88;;;22.27;100.00
12475;BME280;6302;42.624;23.334;2022-09-03T12:19:06;93483.34;;;22.43;100.00
12475;BME280;6302;42.624;23.334;2022-09-03T12:21:37;93493.53;;;22.48;100.00
12475;BME280;6302;42.624;23.334;2022-09-03T12:24:06;93481.81;;;22.51;100.00
12475;BME280;6302;42.624;23.334;2022-09-03T12:26:38;93479.50;;;22.59;100.00
12475;BME280;6302;42.624;23.334;2022-09-03T12:29:19;93481.72;;;22.60;100.00
12475;BME280;6302;42.624;23.334;2022-09-03T12:31:48;93486.50;;;22.65;100.00
12475;BME280;6302;42.624;23.334;2022-09-03T12:34:17;93483.44;;;22.73;100.00
12475;BME280;6302;42.624;23.334;2022-09-03T12:36:45;93489.97;;;22.81;100.00
12475;BME280;6302;42.624;23.334;2022-09-03T12:39:14;93492.47;;;22.70;100.00
12475;BME280;6302;42.624;23.334;2022-09-03T12:41:54;93485.22;;;22.52;100.00
12475;BME280;6302;42.624;23.334;2022-09-03T12:44:28;93488.75;;;22.43;100.00
12475;BME280;6302;42.624;23.334;2022-09-03T12:47:04;93485.78;;;22.41;100.00
12475;BME280;6302;42.624;23.334;2022-09-03T12:49:36;93478.31;;;22.36;100.00
12475;BME280;6302;42.624;23.334;2022-09-03T12:52:08;93469.50;;;22.50;100.00
12475;BME280;6302;42.624;23.334;2022-09-03T12:54:45;93477.16;;;22.66;100.00
12475;BME280;6302;42.624;23.334;2022-09-03T12:57:18;93462.81;;;22.60;100.00
12475;BME280;6302;42.624;23.334;2022-09-03T12:59:47;93476.03;;;22.58;100.00
12475;BME280;6302;42.624;23.334;2022-09-03T13:02:19;93469.06;;;22.66;100.00
12475;BME280;6302;42.624;23.334;2022-09-03T13:04:48;93473.47;;;22.79;100.00
12475;BME280;6302;42.624;23.334;2022-09-03T13:07:26;93465.72;;;22.86;100.00
12475;BME280;6302;42.624;23.334;2022-09-03T13:10:02;93466.41;;;22.96;100.00
12475;BME280;6302;42.624;23.334;2022-09-03T13:12:32;93466.84;;;22.94;100.00
12475;BME280;6302;42.624;23.334;2022-09-03T13:15:07;93461.44;;;22.80;99.71